createdAt,value
2022-08-08T00:01:08.430Z,9.93
2022-08-08T00:03:48.237Z,10.43
2022-08-08T00:06:34.873Z,10.77
2022-08-08T00:09:16.117Z,12.10
2022-08-08T00:12:08.000Z,12.43
2022-08-08T00:14:54.690Z,11.82
2022-08-08T00:18:01.699Z,12.02
2022-08-08T00:20:32.631Z,14.80
2022-08-08T00:23:06.393Z,14.45
2022-08-08T00:25:46.720Z,15.05
2022-08-08T00:28:35.330Z,15.85
2022-08-08T00:32:20.107Z,15.35
2022-08-08T00:34:30.874Z,16.58
2022-08-08T00:37:45.154Z,14.18
2022-08-08T00:41:12.531Z,16.77
2022-08-08T00:43:45.990Z,19.23
2022-08-08T00:47:01.573Z,16.95
2022-08-08T00:50:11.746Z,18.10
2022-08-08T00:52:54.079Z,18.23
2022-08-08T00:55:53.396Z,17.40
2022-08-08T00:58:55.869Z,17.20
2022-08-08T01:01:38.812Z,18.83
2022-08-08T01:04:42.140Z,19.88
2022-08-08T01:07:55.361Z,19.90
2022-08-08T01:10:58.244Z,22.45
2022-08-08T01:13:58.332Z,20.95
2022-08-08T01:16:51.616Z,20.67
2022-08-08T01:20:02.627Z,21.98
2022-08-08T01:24:02.909Z,21.73
2022-08-08T01:26:30.490Z,21.52
2022-08-08T01:29:35.559Z,22.63
2022-08-08T01:32:59.175Z,20.88
2022-08-08T01:36:03.491Z,20.67
2022-08-08T01:39:09.355Z,22.45
2022-08-08T01:41:58.561Z,22.73
2022-08-08T01:44:40.297Z,24.63
2022-08-08T01:48:13.787Z,21.98
2022-08-08T01:50:26.400Z,22.42
2022-08-08T01:55:16.434Z,22.35
2022-08-08T01:56:28.772Z,25.55
2022-08-08T01:58:58.692Z,23.30
2022-08-08T02:02:00.260Z,25.42
2022-08-08T02:04:43.466Z,25.02
2022-08-08T02:07:17.784Z,26.85
2022-08-08T02:10:04.205Z,25.95
2022-08-08T02:12:52.111Z,24.50
2022-08-08T02:15:34.855Z,27.42
2022-08-08T02:18:13.466Z,27.88
2022-08-08T02:21:13.300Z,26.63
2022-08-08T02:26:28.001Z,25.90
2022-08-08T02:29:21.730Z,27.30
2022-08-08T02:32:06.980Z,26.35
2022-08-08T02:35:19.565Z,31.30
2022-08-08T02:38:34.133Z,29.50
2022-08-08T02:42:04.407Z,29.02
2022-08-08T02:44:58.007Z,27.83
2022-08-08T02:48:00.892Z,27.83
2022-08-08T02:50:59.851Z,28.88
2022-08-08T02:53:57.720Z,28.80
2022-08-08T02:56:57.206Z,30.15
2022-08-08T03:00:31.591Z,29.60
2022-08-08T03:05:05.457Z,29.50
2022-08-08T03:07:19.445Z,30.40
2022-08-08T03:10:33.659Z,28.58
2022-08-08T03:16:01.151Z,29.85
2022-08-08T03:16:48.540Z,28.30
2022-08-08T03:19:51.914Z,29.00
2022-08-08T03:22:38.286Z,28.05
2022-08-08T03:25:17.849Z,29.08
2022-08-08T03:27:56.343Z,27.02
2022-08-08T03:30:25.986Z,26.42
2022-08-08T03:33:54.796Z,26.35
2022-08-08T03:36:01.617Z,27.75
2022-08-08T03:38:56.785Z,27.70
2022-08-08T03:42:12.743Z,30.35
2022-08-08T03:44:08.596Z,28.48
2022-08-08T03:46:47.148Z,30.27
2022-08-08T03:49:56.586Z,27.08
2022-08-08T03:52:13.127Z,31.00
2022-08-08T03:55:01.906Z,31.73
2022-08-08T03:58:31.806Z,33.88
2022-08-08T04:00:26.056Z,32.92
2022-08-08T04:03:03.832Z,30.88
2022-08-08T04:05:35.243Z,33.60
2022-08-08T04:08:06.052Z,31.45
2022-08-08T04:10:36.077Z,32.10
2022-08-08T04:13:17.971Z,30.95
2022-08-08T04:16:04.217Z,31.38
2022-08-08T04:18:42.004Z,31.50
2022-08-08T04:21:22.818Z,30.35
2022-08-08T04:24:04.968Z,31.33
2022-08-08T04:26:58.210Z,31.38
2022-08-08T04:29:37.117Z,32.55
2022-08-08T04:32:07.475Z,32.95
2022-08-08T04:34:49.165Z,30.13
2022-08-08T04:37:31.618Z,32.20
2022-08-08T04:40:06.412Z,32.53
2022-08-08T04:42:36.714Z,31.58
2022-08-08T04:45:07.804Z,29.80
2022-08-08T04:47:46.256Z,30.05
2022-08-08T04:50:24.269Z,30.40
2022-08-08T04:53:00.939Z,30.67
2022-08-08T04:55:47.279Z,29.70
2022-08-08T04:58:22.492Z,29.77
2022-08-08T05:00:52.290Z,28.35
2022-08-08T05:04:07.629Z,27.33
2022-08-08T05:06:12.675Z,24.58
2022-08-08T05:08:42.374Z,23.00
2022-08-08T05:11:23.202Z,22.23
2022-08-08T05:14:00.786Z,22.20
2022-08-08T05:16:54.788Z,20.20
2022-08-08T05:20:09.446Z,19.58
2022-08-08T05:22:08.504Z,19.10
2022-08-08T05:24:37.632Z,18.23
2022-08-08T05:27:07.750Z,16.20
2022-08-08T05:29:36.831Z,15.98
2022-08-08T05:32:09.152Z,16.67
2022-08-08T05:34:42.212Z,16.80
2022-08-08T05:37:17.067Z,15.30
2022-08-08T05:39:52.596Z,15.68
2022-08-08T05:42:25.889Z,15.05
2022-08-08T05:45:00.662Z,14.50
2022-08-08T05:47:52.507Z,15.07
2022-08-08T05:50:30.199Z,14.40
2022-08-08T05:53:54.388Z,14.45
2022-08-08T05:56:10.393Z,15.90
2022-08-08T05:58:58.006Z,15.80
2022-08-08T06:01:51.229Z,15.32
2022-08-08T06:04:25.783Z,15.75
2022-08-08T06:06:56.683Z,14.32
2022-08-08T06:09:58.893Z,13.95
2022-08-08T06:12:30.341Z,14.13
2022-08-08T06:15:03.370Z,14.50
2022-08-08T06:17:50.755Z,13.48
2022-08-08T06:20:27.798Z,15.20
2022-08-08T06:22:57.750Z,14.68
2022-08-08T06:26:34.722Z,13.75
2022-08-08T06:28:20.506Z,13.77
2022-08-08T06:31:00.862Z,12.90
2022-08-08T06:34:25.159Z,12.15
2022-08-08T06:36:39.833Z,12.73
2022-08-08T06:39:23.875Z,14.50
2022-08-08T06:41:58.819Z,13.05
2022-08-08T06:44:32.902Z,13.38
2022-08-08T06:47:01.656Z,12.77
2022-08-08T06:49:54.819Z,14.50
2022-08-08T06:52:22.130Z,12.27
2022-08-08T06:54:51.481Z,12.00
2022-08-08T06:57:19.958Z,11.68
2022-08-08T07:00:10.818Z,12.90
2022-08-08T07:02:37.818Z,11.50
2022-08-08T07:05:20.839Z,12.00
2022-08-08T07:08:03.078Z,10.65
2022-08-08T07:10:37.876Z,11.95
2022-08-08T07:13:11.363Z,10.75
2022-08-08T07:16:07.087Z,11.20
2022-08-08T07:21:19.226Z,11.18
2022-08-08T07:24:01.767Z,9.88
2022-08-08T07:26:35.510Z,9.00
2022-08-08T07:29:08.240Z,8.82
2022-08-08T07:31:41.848Z,9.80
2022-08-08T07:34:19.967Z,8.00
2022-08-08T07:36:56.597Z,9.77
2022-08-08T07:39:29.590Z,8.00
2022-08-08T07:42:18.997Z,7.25
2022-08-08T07:44:51.302Z,8.43
2022-08-08T07:47:29.032Z,7.15
2022-08-08T07:50:08.985Z,7.05
2022-08-08T07:52:43.834Z,7.60
2022-08-08T07:55:23.220Z,7.88
2022-08-08T07:58:04.514Z,7.20
2022-08-08T08:00:41.076Z,7.60
2022-08-08T08:03:20.759Z,7.43
2022-08-08T08:05:53.703Z,7.63
2022-08-08T08:08:34.633Z,7.78
2022-08-08T08:11:18.475Z,7.13
2022-08-08T08:14:08.270Z,7.70
2022-08-08T08:16:41.150Z,7.47
2022-08-08T08:19:12.750Z,7.28
2022-08-08T08:21:57.508Z,7.75
2022-08-08T08:29:32.030Z,7.57
2022-08-08T08:32:05.441Z,6.97
2022-08-08T08:34:35.746Z,6.60
2022-08-08T08:37:07.999Z,6.55
2022-08-08T08:40:00.070Z,6.97
2022-08-08T08:42:29.114Z,6.65
2022-08-08T08:45:20.813Z,6.68
2022-08-08T08:47:54.472Z,5.00
2022-08-08T08:50:31.841Z,6.28
2022-08-08T08:53:55.168Z,5.70
2022-08-08T08:55:55.745Z,7.03
2022-08-08T08:58:33.552Z,7.78
2022-08-08T09:01:08.621Z,6.82
2022-08-08T09:03:46.029Z,6.28
2022-08-08T09:06:26.888Z,6.30
2022-08-08T09:09:04.696Z,7.00
2022-08-08T09:11:47.639Z,6.55
2022-08-08T09:14:27.757Z,6.20
2022-08-08T09:16:56.556Z,7.07
2022-08-08T09:22:00.860Z,6.30
2022-08-08T09:22:19.689Z,5.90
2022-08-08T09:24:58.579Z,5.85
2022-08-08T09:27:55.617Z,5.55
2022-08-08T09:30:22.240Z,5.72
2022-08-08T09:33:12.001Z,4.85
2022-08-08T09:35:48.717Z,5.13
2022-08-08T09:38:32.663Z,4.90
2022-08-08T09:41:08.180Z,4.07
2022-08-08T09:44:06.491Z,3.50
2022-08-08T09:46:45.547Z,3.47
2022-08-08T09:49:42.791Z,3.85
2022-08-08T09:52:55.463Z,3.33
2022-08-08T09:55:10.168Z,2.92
2022-08-08T09:57:55.739Z,3.00
2022-08-08T10:00:50.106Z,3.35
2022-08-08T10:03:19.833Z,3.22
2022-08-08T10:05:48.782Z,3.50
2022-08-08T10:08:18.037Z,3.20
2022-08-08T10:10:51.197Z,2.88
2022-08-08T10:13:22.775Z,3.38
2022-08-08T10:16:03.691Z,2.30
2022-08-08T10:18:35.588Z,2.75
2022-08-08T10:21:23.295Z,2.15
2022-08-08T10:23:58.885Z,2.30
2022-08-08T10:29:56.811Z,1.55
2022-08-08T10:32:37.698Z,1.90
2022-08-08T10:36:06.858Z,2.08
2022-08-08T10:38:04.026Z,1.85
2022-08-08T10:40:34.830Z,2.03
2022-08-08T10:43:06.381Z,1.70
2022-08-08T10:45:55.076Z,2.10
2022-08-08T10:48:37.269Z,1.73
2022-08-08T10:51:14.909Z,1.80
2022-08-08T10:53:58.947Z,2.10
2022-08-08T10:56:34.785Z,1.50
2022-08-08T10:59:08.176Z,1.90
2022-08-08T11:01:39.810Z,2.03
2022-08-08T11:04:10.750Z,2.90
2022-08-08T11:06:47.334Z,2.25
2022-08-08T11:09:21.536Z,2.28
2022-08-08T11:12:04.829Z,2.33
2022-08-08T11:14:50.875Z,2.40
2022-08-08T11:18:01.341Z,2.25
2022-08-08T11:20:18.168Z,2.08
2022-08-08T11:22:53.099Z,2.17
2022-08-08T11:25:46.240Z,2.65
2022-08-08T11:28:18.671Z,2.55
2022-08-08T11:30:51.936Z,1.92
2022-08-08T11:33:53.050Z,2.03
2022-08-08T11:36:14.501Z,2.42
2022-08-08T11:38:53.937Z,2.17
2022-08-08T11:41:24.926Z,2.10
2022-08-08T11:43:59.030Z,2.20
2022-08-08T11:46:31.494Z,1.67
2022-08-08T11:49:03.944Z,2.17
2022-08-08T11:51:40.394Z,2.25
2022-08-08T11:54:32.501Z,1.95
2022-08-08T11:57:14.142Z,1.85
2022-08-08T11:59:58.318Z,1.83
2022-08-08T12:02:33.911Z,2.50
2022-08-08T12:05:07.563Z,2.40
2022-08-08T12:07:51.143Z,2.55
2022-08-08T12:10:25.197Z,2.17
2022-08-08T12:13:03.169Z,1.80
2022-08-08T12:15:42.658Z,2.20
2022-08-08T12:18:18.147Z,2.15
2022-08-08T12:20:50.727Z,1.98
2022-08-08T12:23:43.194Z,2.20
2022-08-08T12:26:28.314Z,2.25
2022-08-08T12:29:18.406Z,1.67
2022-08-08T12:31:53.878Z,1.85
2022-08-08T12:34:53.781Z,2.00
2022-08-08T12:37:41.560Z,1.70
2022-08-08T12:40:23.097Z,2.03
2022-08-08T12:42:55.835Z,1.75
2022-08-08T12:45:57.922Z,2.00
2022-08-08T12:48:36.428Z,1.83
2022-08-08T12:51:10.802Z,1.77
2022-08-08T12:53:58.753Z,1.30
2022-08-08T12:56:35.027Z,1.67
2022-08-08T12:59:16.265Z,1.40
2022-08-08T13:01:53.043Z,1.38
2022-08-08T13:04:24.555Z,1.20
2022-08-08T13:07:00.862Z,0.90
2022-08-08T13:09:43.130Z,1.33
2022-08-08T13:12:28.951Z,1.50
2022-08-08T13:15:02.399Z,1.27
2022-08-08T13:17:54.275Z,1.00
2022-08-08T13:20:22.084Z,1.30
2022-08-08T13:22:53.333Z,1.20
2022-08-08T13:25:28.412Z,1.50
2022-08-08T13:28:00.516Z,1.42
2022-08-08T13:30:30.560Z,1.90
2022-08-08T13:33:01.370Z,1.40
2022-08-08T13:35:41.143Z,1.70
2022-08-08T13:38:14.483Z,1.30
2022-08-08T13:40:45.127Z,1.65
2022-08-08T13:43:16.315Z,1.60
2022-08-08T13:45:47.273Z,1.77
2022-08-08T13:48:25.366Z,1.60
2022-08-08T13:50:58.016Z,1.10
2022-08-08T13:53:53.139Z,1.83
2022-08-08T13:56:40.195Z,1.85
2022-08-08T13:59:13.240Z,1.85
2022-08-08T14:01:56.600Z,1.80
2022-08-08T14:04:28.450Z,2.00
2022-08-08T14:07:04.685Z,1.70
2022-08-08T14:10:02.375Z,1.67
2022-08-08T14:12:28.636Z,1.75
2022-08-08T14:14:56.911Z,1.70
2022-08-08T14:17:57.863Z,1.70
2022-08-08T14:20:57.667Z,1.50
2022-08-08T14:23:10.326Z,1.85
2022-08-08T14:25:46.624Z,1.80
2022-08-08T14:28:23.895Z,1.80
2022-08-08T14:31:09.290Z,1.70
2022-08-08T14:33:39.751Z,2.03
2022-08-08T14:36:11.542Z,1.95
2022-08-08T14:38:51.715Z,1.70
2022-08-08T14:41:45.157Z,1.80
2022-08-08T14:44:16.939Z,1.67
2022-08-08T14:47:00.125Z,1.98
2022-08-08T14:49:37.858Z,1.90
2022-08-08T14:52:25.117Z,2.20
2022-08-08T14:54:53.550Z,1.58
2022-08-08T14:58:00.653Z,1.83
2022-08-08T15:00:11.882Z,1.80
2022-08-08T15:02:59.112Z,1.85
2022-08-08T15:05:42.902Z,1.77
2022-08-08T15:08:22.259Z,1.67
2022-08-08T15:11:03.223Z,1.60
2022-08-08T15:13:40.011Z,1.55
2022-08-08T15:16:12.043Z,1.60
2022-08-08T15:21:21.442Z,1.30
2022-08-08T15:23:51.469Z,1.80
2022-08-08T15:26:20.383Z,1.50
2022-08-08T15:28:53.037Z,1.50
2022-08-08T15:31:56.339Z,1.38
2022-08-08T15:34:29.603Z,1.40
2022-08-08T15:37:03.114Z,1.48
2022-08-08T15:39:38.138Z,1.60
2022-08-08T15:42:13.337Z,1.25
2022-08-08T15:44:52.423Z,1.25
2022-08-08T15:47:22.599Z,1.40
2022-08-08T15:49:51.281Z,1.65
2022-08-08T15:52:23.647Z,2.00
2022-08-08T15:54:53.419Z,1.70
2022-08-08T15:57:23.173Z,1.67
2022-08-08T16:00:06.746Z,1.40
2022-08-08T16:02:49.367Z,1.60
2022-08-08T16:05:20.721Z,1.75
2022-08-08T16:07:53.810Z,1.45
2022-08-08T16:13:32.176Z,1.77
2022-08-08T16:16:09.363Z,1.67
2022-08-08T16:18:56.772Z,2.10
2022-08-08T16:21:27.900Z,1.50
2022-08-08T16:24:00.273Z,1.83
2022-08-08T16:26:34.238Z,1.80
2022-08-08T16:29:07.122Z,1.83
2022-08-08T16:31:48.359Z,1.77
2022-08-08T16:34:19.782Z,2.08
2022-08-08T16:36:50.326Z,1.80
2022-08-08T16:39:59.773Z,2.00
2022-08-08T16:42:17.673Z,2.00
2022-08-08T16:44:54.690Z,2.35
2022-08-08T16:47:41.365Z,2.35
2022-08-08T16:50:13.923Z,2.20
2022-08-08T16:55:00.975Z,2.20
2022-08-08T16:55:55.793Z,2.00
2022-08-08T16:58:26.505Z,2.30
2022-08-08T17:00:59.277Z,2.42
2022-08-08T17:03:58.838Z,2.00
2022-08-08T17:06:36.421Z,2.00
2022-08-08T17:09:05.485Z,2.35
2022-08-08T17:11:48.149Z,2.20
2022-08-08T17:14:19.590Z,2.30
2022-08-08T17:16:51.897Z,2.30
2022-08-08T17:19:27.421Z,2.40
2022-08-08T17:21:57.568Z,2.15
2022-08-08T17:24:30.545Z,2.25
2022-08-08T17:27:03.104Z,1.95
2022-08-08T17:29:36.424Z,2.47
2022-08-08T17:32:11.413Z,2.45
2022-08-08T17:35:27.704Z,2.40
2022-08-08T17:37:28.156Z,1.83
2022-08-08T17:40:10.798Z,1.88
2022-08-08T17:42:47.377Z,1.83
2022-08-08T17:45:23.639Z,1.88
2022-08-08T17:47:54.149Z,1.67
2022-08-08T17:50:23.843Z,1.70
2022-08-08T17:52:52.857Z,2.00
2022-08-08T17:56:04.982Z,1.90
2022-08-08T17:58:12.605Z,1.98
2022-08-08T18:00:41.612Z,1.90
2022-08-08T18:03:13.608Z,1.73
2022-08-08T18:05:48.191Z,1.63
2022-08-08T18:08:38.005Z,1.60
2022-08-08T18:11:09.188Z,1.50
2022-08-08T18:13:42.505Z,1.70
2022-08-08T18:16:12.861Z,1.88
2022-08-08T18:18:52.786Z,1.90
2022-08-08T18:21:34.883Z,1.88
2022-08-08T18:24:18.847Z,1.77
2022-08-08T18:26:54.772Z,1.85
2022-08-08T18:29:27.309Z,1.70
2022-08-08T18:32:03.647Z,1.80
2022-08-08T18:34:33.407Z,2.30
2022-08-08T18:37:06.565Z,1.90
2022-08-08T18:39:37.608Z,2.05
2022-08-08T18:42:13.688Z,2.08
2022-08-08T18:44:56.064Z,2.13
2022-08-08T18:47:27.342Z,1.97
2022-08-08T18:49:59.990Z,2.10
2022-08-08T18:52:30.530Z,2.17
2022-08-08T18:55:09.562Z,2.20
2022-08-08T18:57:43.491Z,2.10
2022-08-08T19:00:20.529Z,2.22
2022-08-08T19:02:56.501Z,2.30
2022-08-08T19:05:32.227Z,2.20
2022-08-08T19:08:24.358Z,2.10
2022-08-08T19:10:54.519Z,2.05
2022-08-08T19:13:25.137Z,2.10
2022-08-08T19:15:55.975Z,2.40
2022-08-08T19:18:31.796Z,1.88
2022-08-08T19:21:03.737Z,2.22
2022-08-08T19:23:52.193Z,1.90
2022-08-08T19:26:30.329Z,2.20
2022-08-08T19:28:59.789Z,2.20
2022-08-08T19:31:31.491Z,2.17
2022-08-08T19:34:36.215Z,2.47
2022-08-08T19:36:55.373Z,2.50
2022-08-08T19:39:26.686Z,2.40
2022-08-08T19:42:03.336Z,2.70
2022-08-08T19:44:45.566Z,2.10
2022-08-08T19:47:16.335Z,2.40
2022-08-08T19:50:00.036Z,2.45
2022-08-08T19:52:35.387Z,2.65
2022-08-08T19:55:06.583Z,2.70
2022-08-08T19:57:36.273Z,2.25
2022-08-08T20:00:11.428Z,2.60
2022-08-08T20:02:57.782Z,2.80
2022-08-08T20:06:15.057Z,2.22
2022-08-08T20:08:29.521Z,3.05
2022-08-08T20:11:03.395Z,2.63
2022-08-08T20:14:32.609Z,2.70
2022-08-08T20:16:20.362Z,2.80
2022-08-08T20:18:53.912Z,2.75
2022-08-08T20:21:25.791Z,3.30
2022-08-08T20:23:57.917Z,2.65
2022-08-08T20:26:33.603Z,2.80
2022-08-08T20:29:03.229Z,2.80
2022-08-08T20:32:02.810Z,2.75
2022-08-08T20:34:28.919Z,3.00
2022-08-08T20:37:00.675Z,2.97
2022-08-08T20:39:39.587Z,2.90
2022-08-08T20:42:19.326Z,2.97
2022-08-08T20:44:52.503Z,3.35
2022-08-08T20:47:23.337Z,2.80
2022-08-08T20:49:55.904Z,2.85
2022-08-08T20:52:28.005Z,2.55
2022-08-08T20:54:56.663Z,3.00
2022-08-08T20:57:29.046Z,3.03
2022-08-08T20:59:59.006Z,2.88
2022-08-08T21:02:28.308Z,3.00
2022-08-08T21:05:01.001Z,3.85
2022-08-08T21:07:47.311Z,3.03
2022-08-08T21:10:20.718Z,3.38
2022-08-08T21:12:54.307Z,3.60
2022-08-08T21:16:03.846Z,3.20
2022-08-08T21:18:12.273Z,3.33
2022-08-08T21:20:50.758Z,3.58
2022-08-08T21:23:19.515Z,3.25
2022-08-08T21:25:54.984Z,3.63
2022-08-08T21:28:36.045Z,4.10
2022-08-08T21:31:22.086Z,3.10
2022-08-08T21:33:51.585Z,3.05
2022-08-08T21:36:28.761Z,3.47
2022-08-08T21:38:57.755Z,3.58
2022-08-08T21:41:38.380Z,3.33
2022-08-08T21:44:11.733Z,3.50
2022-08-08T21:48:07.944Z,3.70
2022-08-08T21:49:30.790Z,4.07
2022-08-08T21:54:27.269Z,3.80
2022-08-08T21:54:53.907Z,3.90
2022-08-08T21:57:42.669Z,3.80
2022-08-08T22:00:26.199Z,3.72
2022-08-08T22:02:54.598Z,3.90
2022-08-08T22:05:23.313Z,4.07
2022-08-08T22:07:52.939Z,4.18
2022-08-08T22:10:32.480Z,3.83
2022-08-08T22:13:16.960Z,4.40
2022-08-08T22:15:59.616Z,4.28
2022-08-08T22:18:31.228Z,4.95
2022-08-08T22:21:01.514Z,4.70
2022-08-08T22:23:50.586Z,4.80
2022-08-08T22:26:28.826Z,4.80
2022-08-08T22:29:12.882Z,4.70
2022-08-08T22:31:58.939Z,4.35
2022-08-08T22:34:32.362Z,5.60
2022-08-08T22:37:00.872Z,5.07
2022-08-08T22:39:45.674Z,5.20
2022-08-08T22:42:27.577Z,5.18
2022-08-08T22:45:02.803Z,5.60
2022-08-08T22:47:36.556Z,6.22
2022-08-08T22:50:09.707Z,6.22
2022-08-08T22:53:01.571Z,6.05
2022-08-08T22:55:58.453Z,5.22
2022-08-08T22:58:28.622Z,6.00
2022-08-08T23:01:00.102Z,6.00
2022-08-08T23:04:08.258Z,6.25
2022-08-08T23:07:02.687Z,5.95
2022-08-08T23:12:39.247Z,6.45
2022-08-08T23:16:36.777Z,6.28
2022-08-08T23:17:58.609Z,6.60
2022-08-08T23:20:27.617Z,7.22
2022-08-08T23:22:56.812Z,5.65
2022-08-08T23:25:25.237Z,6.10
2022-08-08T23:27:55.412Z,6.47
2022-08-08T23:30:27.783Z,6.55
2022-08-08T23:32:56.110Z,6.35
2022-08-08T23:35:24.881Z,5.60
2022-08-08T23:38:03.826Z,5.80
2022-08-08T23:40:32.864Z,5.97
2022-08-08T23:43:02.844Z,5.88
2022-08-08T23:49:01.303Z,5.43
2022-08-08T23:49:01.953Z,5.65
2022-08-08T23:51:12.842Z,5.75
2022-08-08T23:54:38.671Z,5.75
2022-08-08T23:56:49.701Z,4.93
2022-08-08T23:59:20.766Z,5.18
